Time;durP1;ratioP1;P1;durP2;ratioP2;P2;SDS_P1;SDS_P2;PMS_P1;PMS_P2;Temp;Humidity;BMP_temperature;BMP_pressure;BME280_temperature;BME280_humidity;BME280_pressure;Samples;Min_cycle;Max_cycle;Signal;HPM_P1;HPM_P2
2023/09/26 00:00:58;;;;;;;;;;;;;;;20.34;51.46;101286.28;5072103;28;19917;-67
2023/09/26 00:03:25;;;;;;;;;;;;;;;20.37;51.39;101289.38;5053797;28;19913;-67
2023/09/26 00:05:52;;;;;;;;;;;;;;;20.37;51.18;101296.72;5053463;28;19935;-67
2023/09/26 00:08:18;;;;;;;;;;;;;;;20.30;50.97;101302.31;5055890;28;19925;-67
2023/09/26 00:10:45;;;;;;;;;;;;;;;20.29;51.05;101298.75;5065876;28;19920;-67
2023/09/26 00:13:11;;;;;;;;;;;;;;;20.30;50.89;101291.41;5076281;28;19912;-67
2023/09/26 00:15:36;;;;;;;;;;;;;;;20.27;50.98;101295.44;5078536;28;20396;-68
2023/09/26 00:18:02;;;;;;;;;;;;;;;20.23;50.99;101293.44;5096450;28;19912;-68
2023/09/26 00:20:28;;;;;;;;;;;;;;;20.15;51.03;101300.06;5096405;28;20010;-68
2023/09/26 00:22:56;;;;;;;;;;;;;;;20.14;51.32;101300.31;5096186;28;20038;-67
2023/09/26 00:25:25;;;;;;;;;;;;;;;20.16;51.47;101303.63;5077833;28;19924;-67
2023/09/26 00:27:50;;;;;;;;;;;;;;;20.15;51.78;101308.25;5075966;28;19967;-67
2023/09/26 00:30:16;;;;;;;;;;;;;;;20.06;51.87;101309.69;5057889;28;20384;-67
2023/09/26 00:32:42;;;;;;;;;;;;;;;20.10;51.71;101316.31;5075696;28;19917;-68
2023/09/26 00:35:13;;;;;;;;;;;;;;;20.08;52.02;101326.63;5075530;28;19934;-68
2023/09/26 00:37:40;;;;;;;;;;;;;;;20.14;52.01;101319.41;5075584;28;19920;-68
2023/09/26 00:40:14;;;;;;;;;;;;;;;20.06;52.05;101329.59;5075511;28;19916;-68
2023/09/26 00:42:40;;;;;;;;;;;;;;;19.97;52.28;101327.44;5075616;28;20388;-67
2023/09/26 00:45:06;;;;;;;;;;;;;;;19.99;52.02;101330.78;5075523;28;19913;-67
2023/09/26 00:47:34;;;;;;;;;;;;;;;20.02;52.07;101319.38;5075217;28;19920;-67
2023/09/26 00:50:01;;;;;;;;;;;;;;;20.03;52.09;101330.06;5075371;28;19959;-67
2023/09/26 00:52:26;;;;;;;;;;;;;;;20.02;52.00;101339.31;5075200;28;19912;-68
2023/09/26 00:54:52;;;;;;;;;;;;;;;20.04;51.84;101348.09;5074545;28;19962;-68
2023/09/26 00:57:17;;;;;;;;;;;;;;;20.08;51.90;101341.09;5075178;28;19923;-68
2023/09/26 00:59:43;;;;;;;;;;;;;;;20.12;51.44;101344.19;5055978;28;20416;-68
2023/09/26 01:02:10;;;;;;;;;;;;;;;20.13;51.57;101343.09;5055044;28;19923;-68
2023/09/26 01:04:36;;;;;;;;;;;;;;;20.15;50.79;101348.31;5055053;28;20355;-68
2023/09/26 01:07:02;;;;;;;;;;;;;;;20.07;51.60;101347.59;5054862;28;19939;-68
2023/09/26 01:09:28;;;;;;;;;;;;;;;20.04;51.21;101342.63;5054484;28;20019;-68
2023/09/26 01:11:53;;;;;;;;;;;;;;;19.98;51.24;101343.56;5074171;28;19935;-68
2023/09/26 01:14:19;;;;;;;;;;;;;;;19.96;51.68;101342.13;5074762;28;20478;-68
2023/09/26 01:16:44;;;;;;;;;;;;;;;19.99;51.70;101347.94;5086609;28;19912;-68
2023/09/26 01:19:09;;;;;;;;;;;;;;;20.07;51.43;101346.78;5094634;28;19915;-68
2023/09/26 01:21:35;;;;;;;;;;;;;;;20.01;51.10;101345.00;5076648;28;19964;-68
2023/09/26 01:24:00;;;;;;;;;;;;;;;19.99;51.29;101358.84;5074701;28;19919;-68
2023/09/26 01:26:33;;;;;;;;;;;;;;;20.01;51.89;101362.19;5074896;28;20571;-68
2023/09/26 01:29:03;;;;;;;;;;;;;;;20.04;50.76;101359.00;5082923;28;19966;-68
2023/09/26 01:31:29;;;;;;;;;;;;;;;20.02;51.22;101360.28;5074404;28;19916;-68
2023/09/26 01:33:54;;;;;;;;;;;;;;;19.99;51.42;101358.84;5074636;28;19912;-68
2023/09/26 01:36:21;;;;;;;;;;;;;;;19.96;51.08;101362.03;5074395;28;20412;-68
2023/09/26 01:38:46;;;;;;;;;;;;;;;19.94;51.12;101360.63;5074479;28;19919;-68
2023/09/26 01:41:12;;;;;;;;;;;;;;;19.91;51.34;101362.75;5074242;28;20003;-68
2023/09/26 01:43:37;;;;;;;;;;;;;;;19.96;51.72;101361.22;5074227;28;19917;-68
2023/09/26 01:46:02;;;;;;;;;;;;;;;19.93;51.45;101370.72;5074206;28;19967;-68
2023/09/26 01:48:28;;;;;;;;;;;;;;;19.98;51.71;101370.00;5074131;28;19917;-68
2023/09/26 01:50:53;;;;;;;;;;;;;;;20.01;51.58;101372.25;5074154;28;20007;-68
2023/09/26 01:53:18;;;;;;;;;;;;;;;20.05;51.49;101368.81;5073925;28;19954;-68
2023/09/26 01:55:44;;;;;;;;;;;;;;;20.09;51.34;101380.91;5073840;28;19989;-68
2023/09/26 01:58:09;;;;;;;;;;;;;;;20.08;52.02;101381.16;5093975;28;19938;-68
2023/09/26 02:00:34;;;;;;;;;;;;;;;20.06;50.97;101388.75;5094148;28;19931;-68
2023/09/26 02:03:00;;;;;;;;;;;;;;;20.06;50.99;101388.75;5078341;28;19916;-68
2023/09/26 02:05:25;;;;;;;;;;;;;;;20.05;50.90;101395.25;5055841;28;19913;-68
2023/09/26 02:07:51;;;;;;;;;;;;;;;20.08;50.85;101392.91;5073597;28;19936;-68
2023/09/26 02:10:17;;;;;;;;;;;;;;;20.17;51.21;101389.81;5067928;28;19917;-68
2023/09/26 02:12:43;;;;;;;;;;;;;;;20.19;50.42;101388.53;5053666;28;19923;-68
2023/09/26 02:15:09;;;;;;;;;;;;;;;20.17;50.62;101393.41;5053644;28;20456;-68
2023/09/26 02:17:35;;;;;;;;;;;;;;;20.16;50.47;101397.19;5075603;28;20007;-68
2023/09/26 02:20:03;;;;;;;;;;;;;;;20.15;51.02;101402.88;5073273;28;20270;-68
2023/09/26 02:22:28;;;;;;;;;;;;;;;20.11;50.63;101405.22;5073484;28;19916;-68
2023/09/26 02:24:53;;;;;;;;;;;;;;;20.11;50.43;101408.81;5073381;28;20242;-68
2023/09/26 02:27:19;;;;;;;;;;;;;;;20.09;50.85;101407.34;5077383;28;20593;-68
2023/09/26 02:29:44;;;;;;;;;;;;;;;20.09;51.30;101394.53;5077144;28;19912;-68
2023/09/26 02:32:10;;;;;;;;;;;;;;;20.01;50.19;101392.16;5073578;28;20003;-68
2023/09/26 02:34:35;;;;;;;;;;;;;;;19.92;51.10;101399.84;5073665;28;20414;-68
2023/09/26 02:37:00;;;;;;;;;;;;;;;19.91;51.29;101403.66;5073208;28;20332;-68
2023/09/26 02:39:25;;;;;;;;;;;;;;;19.89;51.25;101402.22;5073472;28;19961;-68
2023/09/26 02:41:51;;;;;;;;;;;;;;;19.89;51.95;101408.50;5073326;28;19917;-68
2023/09/26 02:44:16;;;;;;;;;;;;;;;19.88;51.97;101404.09;5073262;28;19919;-68
2023/09/26 02:46:41;;;;;;;;;;;;;;;19.87;51.86;101416.09;5073399;28;19931;-68
2023/09/26 02:49:07;;;;;;;;;;;;;;;19.86;51.56;101408.16;5073095;28;20406;-68
2023/09/26 02:51:32;;;;;;;;;;;;;;;19.82;51.38;101415.94;5085930;28;19919;-68
2023/09/26 02:53:57;;;;;;;;;;;;;;;19.76;51.35;101408.72;5072853;28;19958;-68
2023/09/26 02:56:22;;;;;;;;;;;;;;;19.75;51.57;101404.31;5073133;28;19913;-68
2023/09/26 02:58:48;;;;;;;;;;;;;;;19.76;51.84;101396.97;5055564;28;19955;-68
2023/09/26 03:01:17;;;;;;;;;;;;;;;19.71;51.67;101394.91;5072953;28;20419;-68
2023/09/26 03:03:42;;;;;;;;;;;;;;;19.68;51.17;101395.34;5072987;28;19913;-68
2023/09/26 03:06:08;;;;;;;;;;;;;;;19.61;51.34;101398.16;5073037;28;20010;-68
2023/09/26 03:08:33;;;;;;;;;;;;;;;19.57;51.18;101396.97;5072820;28;19928;-68
2023/09/26 03:10:59;;;;;;;;;;;;;;;19.52;50.70;101403.13;5061105;28;20372;-68
2023/09/26 03:13:24;;;;;;;;;;;;;;;19.57;51.40;101398.88;5064759;28;19913;-68
2023/09/26 03:15:56;;;;;;;;;;;;;;;19.49;50.83;101400.84;5077176;28;19923;-68
2023/09/26 03:18:21;;;;;;;;;;;;;;;19.53;51.55;101401.22;5093050;28;19912;-68
2023/09/26 03:20:47;;;;;;;;;;;;;;;19.49;51.21;101395.41;5092907;28;19927;-68
2023/09/26 03:23:12;;;;;;;;;;;;;;;19.53;51.27;101393.06;5092968;28;20284;-68
2023/09/26 03:25:37;;;;;;;;;;;;;;;19.52;50.84;101403.13;5093051;28;20053;-68
2023/09/26 03:28:03;;;;;;;;;;;;;;;19.52;51.44;101397.69;5082868;28;19920;-68
2023/09/26 03:30:29;;;;;;;;;;;;;;;19.48;51.34;101404.66;5073084;28;19999;-68
2023/09/26 03:32:54;;;;;;;;;;;;;;;19.49;50.86;101406.31;5072755;28;19997;-68
2023/09/26 03:35:19;;;;;;;;;;;;;;;19.47;50.91;101402.16;5072715;28;19912;-68
2023/09/26 03:37:44;;;;;;;;;;;;;;;19.43;50.77;101409.13;5072863;28;19912;-68
2023/09/26 03:40:10;;;;;;;;;;;;;;;19.37;50.93;101410.88;5072630;28;19991;-68
2023/09/26 03:42:35;;;;;;;;;;;;;;;19.25;51.03;101418.16;5076828;28;19944;-68
2023/09/26 03:45:00;;;;;;;;;;;;;;;19.25;51.19;101415.41;5059220;28;19958;-68
2023/09/26 03:47:26;;;;;;;;;;;;;;;19.28;51.16;101417.69;5076578;28;19986;-68
2023/09/26 03:49:52;;;;;;;;;;;;;;;19.22;51.50;101427.59;5076999;28;19912;-68
2023/09/26 03:52:18;;;;;;;;;;;;;;;19.17;51.06;101423.88;5076895;28;19923;-68
2023/09/26 03:54:43;;;;;;;;;;;;;;;19.10;51.39;101415.81;5075722;28;19916;-68
2023/09/26 03:57:08;;;;;;;;;;;;;;;19.15;51.39;101421.41;5076552;28;19912;-68
2023/09/26 03:59:33;;;;;;;;;;;;;;;19.21;51.93;101419.66;5076150;28;19916;-68
2023/09/26 04:01:59;;;;;;;;;;;;;;;19.15;51.52;101427.69;5076071;28;19923;-68
2023/09/26 04:04:24;;;;;;;;;;;;;;;19.22;51.32;101424.03;5076003;28;20383;-68
2023/09/26 04:06:49;;;;;;;;;;;;;;;19.19;51.47;101427.25;5076160;28;20428;-68
2023/09/26 04:09:15;;;;;;;;;;;;;;;19.14;51.72;101417.84;5075792;28;19926;-68
2023/09/26 04:11:40;;;;;;;;;;;;;;;19.21;51.92;101419.66;5058547;28;20345;-68
2023/09/26 04:14:05;;;;;;;;;;;;;;;19.13;51.28;101421.63;5055987;28;19913;-68
2023/09/26 04:16:31;;;;;;;;;;;;;;;19.12;51.58;101424.56;5076448;28;19963;-68
2023/09/26 04:18:56;;;;;;;;;;;;;;;19.13;51.86;101423.53;5096404;28;19912;-68
2023/09/26 04:21:21;;;;;;;;;;;;;;;19.13;51.77;101432.53;5096202;28;19970;-68
2023/09/26 04:23:47;;;;;;;;;;;;;;;19.17;51.77;101432.91;5096360;28;19952;-68
2023/09/26 04:26:13;;;;;;;;;;;;;;;19.22;51.51;101437.66;5096068;28;20003;-68
2023/09/26 04:28:40;;;;;;;;;;;;;;;19.25;51.44;101446.22;5080961;28;19912;-68
2023/09/26 04:31:05;;;;;;;;;;;;;;;19.23;51.69;101445.59;5075648;28;19913;-68
2023/09/26 04:33:30;;;;;;;;;;;;;;;19.30;51.86;101438.19;5075916;28;20417;-68
2023/09/26 04:35:56;;;;;;;;;;;;;;;19.34;51.61;101449.47;5075679;28;19916;-68
2023/09/26 04:38:22;;;;;;;;;;;;;;;19.36;51.97;101447.34;5075594;28;19962;-68
2023/09/26 04:40:47;;;;;;;;;;;;;;;19.44;51.55;101451.66;5075499;28;19920;-68
2023/09/26 04:43:12;;;;;;;;;;;;;;;19.46;51.68;101450.34;5075374;28;19917;-68
2023/09/26 04:45:38;;;;;;;;;;;;;;;19.47;51.52;101443.84;5075331;28;20345;-68
2023/09/26 04:48:03;;;;;;;;;;;;;;;19.51;51.17;101446.94;5075302;28;19913;-68
2023/09/26 04:50:29;;;;;;;;;;;;;;;19.52;51.48;101443.19;5075366;28;19920;-68
2023/09/26 04:52:55;;;;;;;;;;;;;;;19.51;51.32;101450.50;5074241;28;20266;-68
2023/09/26 04:55:21;;;;;;;;;;;;;;;19.57;51.45;101448.75;5080610;28;19923;-68
2023/09/26 04:57:46;;;;;;;;;;;;;;;19.56;51.13;101448.97;5095825;28;20349;-68
2023/09/26 05:00:13;;;;;;;;;;;;;;;19.52;50.52;101454.06;5095567;28;19979;-68
2023/09/26 05:02:38;;;;;;;;;;;;;;;19.54;51.14;101463.66;5083077;28;19935;-68
2023/09/26 05:05:04;;;;;;;;;;;;;;;19.55;51.10;101456.31;5074949;28;19924;-68
2023/09/26 05:07:30;;;;;;;;;;;;;;;19.56;51.04;101454.41;5075075;28;19966;-68
2023/09/26 05:09:56;;;;;;;;;;;;;;;19.59;51.06;101462.97;5054084;28;19929;-68
2023/09/26 05:12:22;;;;;;;;;;;;;;;19.58;50.74;101465.94;5055334;28;19913;-68
2023/09/26 05:14:47;;;;;;;;;;;;;;;19.59;51.06;101460.25;5055255;28;20038;-68
2023/09/26 05:17:13;;;;;;;;;;;;;;;19.60;50.49;101463.81;5087034;28;20357;-68
2023/09/26 05:19:38;;;;;;;;;;;;;;;19.58;50.68;101460.50;5095273;28;19912;-68
2023/09/26 05:22:04;;;;;;;;;;;;;;;19.51;50.41;101466.84;5095066;28;20010;-68
2023/09/26 05:24:29;;;;;;;;;;;;;;;19.45;51.01;101464.22;5095227;28;19912;-68
2023/09/26 05:26:54;;;;;;;;;;;;;;;19.51;51.12;101464.13;5082782;28;20266;-68
2023/09/26 05:29:20;;;;;;;;;;;;;;;19.52;50.73;101468.53;5082902;28;19912;-68
2023/09/26 05:31:46;;;;;;;;;;;;;;;19.54;50.58;101469.13;5074860;28;19912;-68
2023/09/26 05:34:11;;;;;;;;;;;;;;;19.52;50.51;101465.78;5074669;28;19920;-68
2023/09/26 05:36:37;;;;;;;;;;;;;;;19.46;50.78;101461.25;5057032;28;19920;-68
2023/09/26 05:39:02;;;;;;;;;;;;;;;19.43;50.52;101463.63;5071430;28;20350;-68
2023/09/26 05:41:27;;;;;;;;;;;;;;;19.50;51.19;101464.34;5054685;28;19943;-68
2023/09/26 05:43:52;;;;;;;;;;;;;;;19.51;50.85;101471.47;5054369;28;19913;-68
2023/09/26 05:46:18;;;;;;;;;;;;;;;19.58;51.13;101465.94;5060537;28;19939;-68
2023/09/26 05:48:43;;;;;;;;;;;;;;;19.63;50.93;101472.38;5074480;28;20387;-67
2023/09/26 05:51:09;;;;;;;;;;;;;;;19.57;50.68;101475.16;5074618;28;19913;-68
2023/09/26 05:53:34;;;;;;;;;;;;;;;19.65;50.90;101477.56;5074111;28;19995;-67
2023/09/26 05:55:59;;;;;;;;;;;;;;;19.73;50.91;101480.03;5085060;28;19912;-68
2023/09/26 05:58:25;;;;;;;;;;;;;;;19.76;50.79;101485.03;5094792;28;19973;-68
2023/09/26 06:00:51;;;;;;;;;;;;;;;19.79;50.68;101484.56;5092770;28;20338;-68
2023/09/26 06:03:16;;;;;;;;;;;;;;;19.84;50.53;101494.78;5056174;28;19913;-68
2023/09/26 06:05:45;;;;;;;;;;;;;;;19.85;50.52;101494.53;5054052;28;19920;-68
2023/09/26 06:08:10;;;;;;;;;;;;;;;19.91;50.37;101492.81;5053785;28;19925;-68
2023/09/26 06:10:36;;;;;;;;;;;;;;;19.99;50.51;101497.91;5062335;28;19920;-68
2023/09/26 06:13:01;;;;;;;;;;;;;;;20.06;50.57;101504.13;5073676;28;19951;-68
2023/09/26 06:15:27;;;;;;;;;;;;;;;20.09;50.24;101508.25;5075040;28;19960;-68
2023/09/26 06:17:57;;;;;;;;;;;;;;;20.09;50.22;101509.09;5093901;28;19912;-68
2023/09/26 06:20:22;;;;;;;;;;;;;;;20.13;50.22;101520.38;5093968;28;19916;-68
2023/09/26 06:22:48;;;;;;;;;;;;;;;20.11;50.03;101517.03;5084372;28;19927;-68
2023/09/26 06:25:13;;;;;;;;;;;;;;;20.15;49.80;101520.13;5073649;28;19916;-68
2023/09/26 06:27:39;;;;;;;;;;;;;;;20.17;49.85;101518.00;5080393;28;19919;-68
2023/09/26 06:30:05;;;;;;;;;;;;;;;20.20;49.92;101520.28;5057598;28;19913;-68
2023/09/26 06:32:30;;;;;;;;;;;;;;;20.27;50.06;101519.13;5073166;28;19912;-68
2023/09/26 06:34:59;;;;;;;;;;;;;;;20.23;49.77;101503.47;5073062;28;19913;-68
2023/09/26 06:37:24;;;;;;;;;;;;;;;20.40;50.08;101520.81;5053244;28;19913;-69
2023/09/26 06:39:49;;;;;;;;;;;;;;;20.46;49.86;101521.78;5053034;28;20342;-69
2023/09/26 06:42:15;;;;;;;;;;;;;;;20.49;49.58;101524.06;5053135;28;19921;-69
2023/09/26 06:44:40;;;;;;;;;;;;;;;20.50;49.20;101522.97;5052891;28;20230;-69
2023/09/26 06:47:05;;;;;;;;;;;;;;;20.52;49.72;101533.66;5065566;28;19927;-69
2023/09/26 06:49:31;;;;;;;;;;;;;;;20.53;49.23;101532.59;5073076;28;20041;-69
2023/09/26 06:51:57;;;;;;;;;;;;;;;20.53;49.19;101533.44;5072705;28;19917;-68
2023/09/26 06:54:23;;;;;;;;;;;;;;;20.50;49.47;101529.28;5072540;28;19919;-68
2023/09/26 06:56:48;;;;;;;;;;;;;;;20.49;49.55;101543.16;5091025;28;20340;-68
2023/09/26 06:59:13;;;;;;;;;;;;;;;20.46;49.26;101538.97;5095094;28;19918;-68
2023/09/26 07:01:38;;;;;;;;;;;;;;;20.39;49.87;101557.38;5090321;28;19966;-69
2023/09/26 07:04:04;;;;;;;;;;;;;;;20.37;49.39;101550.47;5073789;28;19966;-69
2023/09/26 07:06:30;;;;;;;;;;;;;;;20.37;49.20;101556.75;5073910;28;20416;-69
2023/09/26 07:08:57;;;;;;;;;;;;;;;20.41;49.53;101565.31;5073051;28;20262;-69
2023/09/26 07:11:22;;;;;;;;;;;;;;;20.43;49.96;101566.75;5058204;28;19924;-69
2023/09/26 07:13:48;;;;;;;;;;;;;;;20.37;49.58;101562.19;5052886;28;19947;-69
2023/09/26 07:16:14;;;;;;;;;;;;;;;20.44;49.69;101567.56;5067892;28;19916;-69
2023/09/26 07:18:39;;;;;;;;;;;;;;;20.48;49.33;101577.78;5086884;28;20445;-69
2023/09/26 07:21:06;;;;;;;;;;;;;;;20.59;49.73;101575.34;5073025;28;19961;-69
2023/09/26 07:23:35;;;;;;;;;;;;;;;20.68;49.52;101568.50;5073030;28;19916;-69
2023/09/26 07:26:04;;;;;;;;;;;;;;;20.73;49.54;101573.25;5054849;28;19913;-69
2023/09/26 07:28:29;;;;;;;;;;;;;;;20.78;49.35;101567.91;5062799;28;19912;-69
2023/09/26 07:30:54;;;;;;;;;;;;;;;20.87;49.35;101567.34;5072700;28;19912;-69
2023/09/26 07:33:20;;;;;;;;;;;;;;;20.89;49.33;101580.75;5054953;28;20274;-69
2023/09/26 07:35:49;;;;;;;;;;;;;;;20.85;48.92;101583.13;5052666;28;19913;-69
2023/09/26 07:38:15;;;;;;;;;;;;;;;20.86;49.50;101579.34;5052405;28;19916;-69
2023/09/26 07:40:40;;;;;;;;;;;;;;;20.88;49.11;101600.97;5052467;28;19962;-69
2023/09/26 07:43:05;;;;;;;;;;;;;;;20.94;49.26;101589.09;5052420;28;20007;-69
2023/09/26 07:45:31;;;;;;;;;;;;;;;20.92;48.80;101587.66;5052793;28;19913;-69
2023/09/26 07:47:56;;;;;;;;;;;;;;;20.94;49.07;101597.28;5072191;28;19962;-68
2023/09/26 07:50:22;;;;;;;;;;;;;;;20.96;49.59;101594.31;5054360;28;19918;-67
2023/09/26 07:52:47;;;;;;;;;;;;;;;20.93;49.00;101601.09;5072313;28;19916;-67
2023/09/26 07:55:12;;;;;;;;;;;;;;;20.91;48.92;101603.19;5076229;28;19935;-67
2023/09/26 07:57:37;;;;;;;;;;;;;;;20.94;48.96;101610.09;5086810;28;20410;-67
2023/09/26 08:00:03;;;;;;;;;;;;;;;20.89;48.68;101605.34;5072159;28;20365;-67
2023/09/26 08:02:28;;;;;;;;;;;;;;;20.94;48.95;101610.09;5072081;28;19987;-67
2023/09/26 08:04:53;;;;;;;;;;;;;;;21.11;49.47;101604.78;5072330;28;19920;-67
2023/09/26 08:07:19;;;;;;;;;;;;;;;21.26;49.19;101600.50;5072546;28;20057;-67
2023/09/26 08:09:44;;;;;;;;;;;;;;;21.39;48.82;101602.16;5052525;28;20300;-67
2023/09/26 08:12:09;;;;;;;;;;;;;;;21.46;48.42;101602.09;5052124;28;20281;-67
2023/09/26 08:14:35;;;;;;;;;;;;;;;21.48;48.48;101599.94;5055415;28;19997;-67
2023/09/26 08:17:00;;;;;;;;;;;;;;;21.48;48.35;101599.13;5086304;28;20345;-67
2023/09/26 08:19:26;;;;;;;;;;;;;;;21.44;48.03;101606.94;5092393;28;19912;-68
2023/09/26 08:21:51;;;;;;;;;;;;;;;21.42;48.09;101600.88;5092454;28;20522;-67
2023/09/26 08:24:17;;;;;;;;;;;;;;;21.42;48.38;101609.91;5092779;28;20007;-67
2023/09/26 08:26:42;;;;;;;;;;;;;;;21.40;48.51;101609.31;5093759;28;19913;-67
2023/09/26 08:29:07;;;;;;;;;;;;;;;21.39;48.24;101604.91;5073884;28;19942;-67
2023/09/26 08:31:33;;;;;;;;;;;;;;;21.36;48.37;101599.94;5075892;28;20337;-68
2023/09/26 08:33:59;;;;;;;;;;;;;;;21.39;48.31;101599.44;5075753;28;19913;-68
2023/09/26 08:36:24;;;;;;;;;;;;;;;21.39;47.94;101602.16;5075908;28;19916;-68
2023/09/26 08:38:50;;;;;;;;;;;;;;;21.35;47.74;101600.97;5075725;28;20007;-68
2023/09/26 08:41:20;;;;;;;;;;;;;;;21.36;47.26;101602.66;5075547;28;19916;-68
2023/09/26 08:43:45;;;;;;;;;;;;;;;21.40;48.16;101608.47;5075582;28;20352;-68
2023/09/26 08:46:11;;;;;;;;;;;;;;;21.38;47.87;101610.63;5075418;28;19913;-68
2023/09/26 08:48:37;;;;;;;;;;;;;;;21.30;48.32;101609.06;5075792;28;19912;-68
2023/09/26 08:51:03;;;;;;;;;;;;;;;21.24;48.35;101610.00;5075502;28;19919;-68
2023/09/26 08:53:28;;;;;;;;;;;;;;;21.30;48.33;101609.06;5075575;28;19991;-68
2023/09/26 08:55:54;;;;;;;;;;;;;;;21.34;47.85;101615.72;5074830;28;20015;-68
2023/09/26 08:58:20;;;;;;;;;;;;;;;21.32;47.79;101606.94;5075175;28;19916;-68
2023/09/26 09:00:45;;;;;;;;;;;;;;;21.19;48.03;101618.94;5075264;28;20331;-68
2023/09/26 09:03:10;;;;;;;;;;;;;;;21.31;47.87;101616.19;5075054;28;19957;-68
2023/09/26 09:05:36;;;;;;;;;;;;;;;21.31;48.48;101618.09;5075467;28;19913;-68
2023/09/26 09:08:01;;;;;;;;;;;;;;;21.38;47.81;101624.28;5074736;28;19926;-68
2023/09/26 09:10:28;;;;;;;;;;;;;;;21.41;47.49;101621.91;5067990;28;19928;-68
2023/09/26 09:13:04;;;;;;;;;;;;;;;21.48;47.50;101624.53;5075134;28;19912;-68
2023/09/26 09:15:30;;;;;;;;;;;;;;;21.58;47.77;101616.59;5076406;28;19927;-68
2023/09/26 09:17:56;;;;;;;;;;;;;;;21.64;47.40;101618.34;5095005;28;19965;-69
2023/09/26 09:20:32;;;;;;;;;;;;;;;21.60;47.98;101611.72;5095265;28;20522;-68
2023/09/26 09:23:01;;;;;;;;;;;;;;;21.74;47.50;101617.75;5095518;28;19916;-68
2023/09/26 09:25:34;;;;;;;;;;;;;;;21.90;47.50;101618.91;5080352;28;19913;-68
2023/09/26 09:28:00;;;;;;;;;;;;;;;22.02;47.63;101613.41;5082950;28;19912;-68
2023/09/26 09:30:26;;;;;;;;;;;;;;;22.12;47.04;101620.97;5074417;28;19920;-68
2023/09/26 09:32:51;;;;;;;;;;;;;;;22.13;46.80;101623.47;5074593;28;20662;-68
2023/09/26 09:35:17;;;;;;;;;;;;;;;22.23;47.13;101618.22;5074686;28;19912;-68
2023/09/26 09:37:46;;;;;;;;;;;;;;;22.34;46.82;101623.91;5074813;28;19913;-68
2023/09/26 09:40:23;;;;;;;;;;;;;;;22.37;46.08;101620.69;5074329;28;20018;-68
2023/09/26 09:42:49;;;;;;;;;;;;;;;22.41;45.76;101621.88;5074692;28;19917;-68
2023/09/26 09:45:14;;;;;;;;;;;;;;;22.42;45.90;101626.28;5074506;28;19920;-68
2023/09/26 09:47:42;;;;;;;;;;;;;;;22.50;45.77;101619.56;5074365;28;20403;-68
2023/09/26 09:50:08;;;;;;;;;;;;;;;22.55;46.63;101619.69;5074438;28;19916;-68
2023/09/26 09:52:33;;;;;;;;;;;;;;;22.70;46.08;101619.94;5074460;28;19912;-68
2023/09/26 09:55:02;;;;;;;;;;;;;;;22.76;45.24;101629.09;5076040;28;20361;-68
2023/09/26 09:57:28;;;;;;;;;;;;;;;22.84;45.25;101617.72;5082418;28;19951;-68
2023/09/26 09:59:55;;;;;;;;;;;;;;;22.96;46.36;101618.47;5053906;28;19912;-68
2023/09/26 10:02:21;;;;;;;;;;;;;;;23.14;45.25;101617.44;5053753;28;19913;-68
2023/09/26 10:04:47;;;;;;;;;;;;;;;23.18;45.50;101615.84;5036309;28;19916;-68
2023/09/26 10:07:14;;;;;;;;;;;;;;;23.32;44.99;101613.59;5058414;28;19916;-68
2023/09/26 10:09:41;;;;;;;;;;;;;;;23.56;45.62;101618.88;5072637;28;19927;-68
2023/09/26 10:12:07;;;;;;;;;;;;;;;23.51;43.93;101621.53;5053754;28;20433;-68
2023/09/26 10:14:32;;;;;;;;;;;;;;;23.55;44.25;101619.94;5053703;28;19955;-69
2023/09/26 10:16:59;;;;;;;;;;;;;;;23.51;43.50;101619.66;5081848;28;20314;-68
2023/09/26 10:19:26;;;;;;;;;;;;;;;23.62;44.74;101614.28;5094025;28;19954;-68
2023/09/26 10:21:52;;;;;;;;;;;;;;;23.75;42.63;101624.88;5078300;28;19916;-68
2023/09/26 10:24:18;;;;;;;;;;;;;;;23.83;42.77;101621.75;5074097;28;19916;-68
2023/09/26 10:26:44;;;;;;;;;;;;;;;23.84;42.63;101622.56;5073843;28;20570;-68
2023/09/26 10:29:20;;;;;;;;;;;;;;;23.90;42.53;101616.91;5082270;28;19962;-68
2023/09/26 10:31:49;;;;;;;;;;;;;;;24.11;43.55;101620.72;5073879;28;19913;-68
2023/09/26 10:34:14;;;;;;;;;;;;;;;24.25;43.18;101621.16;5073777;28;19951;-68
2023/09/26 10:36:42;;;;;;;;;;;;;;;24.28;42.18;101625.31;5073706;28;20271;-68
2023/09/26 10:39:09;;;;;;;;;;;;;;;24.29;42.50;101616.81;5073869;28;20369;-68
2023/09/26 10:41:35;;;;;;;;;;;;;;;24.50;43.62;101620.59;5073475;28;19917;-68
2023/09/26 10:44:04;;;;;;;;;;;;;;;24.49;42.98;101626.34;5073192;28;20077;-69
2023/09/26 10:46:29;;;;;;;;;;;;;;;24.71;41.73;101620.84;5055345;28;19919;-68
2023/09/26 10:48:55;;;;;;;;;;;;;;;24.84;41.73;101622.34;5073233;28;20276;-68
2023/09/26 10:51:21;;;;;;;;;;;;;;;24.89;40.83;101622.38;5068444;28;19923;-68
2023/09/26 10:53:47;;;;;;;;;;;;;;;24.92;40.44;101625.44;5073602;28;19991;-68
2023/09/26 10:56:12;;;;;;;;;;;;;;;25.05;40.60;101609.59;5074162;28;20311;-68
2023/09/26 10:58:37;;;;;;;;;;;;;;;25.22;40.78;101607.53;5073855;28;19922;-68
2023/09/26 11:01:02;;;;;;;;;;;;;;;25.14;41.21;101608.00;5073930;28;19916;-68
2023/09/26 11:03:30;;;;;;;;;;;;;;;25.22;39.76;101602.03;5074051;28;19923;-68
2023/09/26 11:05:56;;;;;;;;;;;;;;;25.36;39.73;101607.91;5074533;28;19912;-68
2023/09/26 11:08:22;;;;;;;;;;;;;;;25.47;41.07;101603.31;5073814;28;20388;-68
2023/09/26 11:10:50;;;;;;;;;;;;;;;25.53;39.61;101596.72;5063692;28;19920;-68
2023/09/26 11:13:16;;;;;;;;;;;;;;;25.60;39.26;101597.31;5053906;28;19913;-68
2023/09/26 11:15:45;;;;;;;;;;;;;;;25.73;39.49;101593.25;5042477;28;19919;-68
2023/09/26 11:18:13;;;;;;;;;;;;;;;25.75;38.09;101590.25;5077185;28;19935;-68
2023/09/26 11:20:39;;;;;;;;;;;;;;;25.89;38.81;101595.00;5073272;28;19924;-68
2023/09/26 11:23:04;;;;;;;;;;;;;;;25.84;38.59;101596.91;5073195;28;19920;-68
2023/09/26 11:25:33;;;;;;;;;;;;;;;26.04;39.70;101596.19;5073455;28;20265;-68
2023/09/26 11:27:58;;;;;;;;;;;;;;;26.23;39.32;101596.50;5081640;28;19912;-68
2023/09/26 11:30:24;;;;;;;;;;;;;;;26.19;37.56;101601.72;5073345;28;19919;-68
2023/09/26 11:32:54;;;;;;;;;;;;;;;26.36;37.86;101597.91;5073487;28;19912;-68
2023/09/26 11:35:22;;;;;;;;;;;;;;;26.48;37.92;101601.22;5073362;28;20452;-68
2023/09/26 11:37:49;;;;;;;;;;;;;;;26.51;38.08;101603.44;5055197;28;19916;-69
2023/09/26 11:40:27;;;;;;;;;;;;;;;26.48;36.70;101600.41;5073417;28;19916;-69
2023/09/26 11:42:55;;;;;;;;;;;;;;;26.41;36.85;101603.41;5073385;28;20296;-69
2023/09/26 11:45:24;;;;;;;;;;;;;;;26.70;38.65;101591.94;5073536;28;20373;-69
2023/09/26 11:47:50;;;;;;;;;;;;;;;27.00;37.02;101589.16;5073388;28;19916;-69
2023/09/26 11:50:16;;;;;;;;;;;;;;;26.93;37.52;101591.38;5073015;28;20464;-68
2023/09/26 11:52:42;;;;;;;;;;;;;;;27.04;36.64;101595.78;5073259;28;19951;-68
2023/09/26 11:55:07;;;;;;;;;;;;;;;26.96;35.79;101593.56;5076649;28;20453;-68
2023/09/26 11:57:33;;;;;;;;;;;;;;;27.16;36.18;101581.69;5093042;28;19954;-68
2023/09/26 11:59:58;;;;;;;;;;;;;;;27.21;36.04;101578.94;5086393;28;19917;-68
2023/09/26 12:02:24;;;;;;;;;;;;;;;27.22;34.96;101574.25;5046478;28;19923;-68
2023/09/26 12:04:49;;;;;;;;;;;;;;;27.32;35.18;101587.22;5057384;28;19919;-68
2023/09/26 12:07:14;;;;;;;;;;;;;;;27.19;35.03;101569.28;5056704;28;19912;-68
2023/09/26 12:09:43;;;;;;;;;;;;;;;27.11;35.59;101575.38;5057051;28;19935;-68
2023/09/26 12:12:09;;;;;;;;;;;;;;;27.13;35.62;101579.50;5076554;28;20383;-68
2023/09/26 12:14:34;;;;;;;;;;;;;;;27.14;36.97;101572.88;5058896;28;20007;-68
2023/09/26 12:17:00;;;;;;;;;;;;;;;27.45;36.56;101580.28;5084734;28;19966;-68
2023/09/26 12:19:25;;;;;;;;;;;;;;;27.47;35.50;101573.41;5096765;28;19912;-68
2023/09/26 12:21:50;;;;;;;;;;;;;;;27.74;35.86;101566.66;5096699;28;19959;-68
2023/09/26 12:24:16;;;;;;;;;;;;;;;27.84;35.11;101565.78;5078518;28;19924;-68
2023/09/26 12:26:41;;;;;;;;;;;;;;;28.08;35.15;101568.72;5096725;28;19912;-68
2023/09/26 12:29:07;;;;;;;;;;;;;;;28.31;35.33;101561.69;5077789;28;19912;-68